createdAt,value
2019-05-21T00:01:53.209Z,14.20
2019-05-21T00:04:28.339Z,14.20
2019-05-21T00:06:51.800Z,14.20
2019-05-21T00:09:20.198Z,14.20
2019-05-21T00:11:48.623Z,14.20
2019-05-21T00:14:17.040Z,14.20
2019-05-21T00:16:45.452Z,14.20
2019-05-21T00:19:13.878Z,14.20
2019-05-21T00:21:42.290Z,14.20
2019-05-21T00:24:10.719Z,14.20
2019-05-21T00:26:39.175Z,14.20
2019-05-21T00:29:44.355Z,14.20
2019-05-21T00:32:49.545Z,14.20
2019-05-21T00:36:13.174Z,14.30
2019-05-21T00:39:18.068Z,14.30
2019-05-21T00:42:04.878Z,14.20
2019-05-21T00:44:43.710Z,14.20
2019-05-21T00:47:12.990Z,14.20
2019-05-21T00:49:41.551Z,14.30
2019-05-21T00:52:10.274Z,14.30
2019-05-21T00:54:38.803Z,14.30
2019-05-21T00:57:07.210Z,14.40
2019-05-21T00:59:35.883Z,14.50
2019-05-21T01:02:04.275Z,14.40
2019-05-21T01:04:32.739Z,14.40
2019-05-21T01:07:01.161Z,14.40
2019-05-21T01:09:29.574Z,14.40
2019-05-21T01:11:58.012Z,14.40
2019-05-21T01:14:26.431Z,14.40
2019-05-21T01:16:54.927Z,14.30
2019-05-21T01:19:23.348Z,14.30
2019-05-21T01:21:51.886Z,14.30
2019-05-21T01:24:20.308Z,14.30
2019-05-21T01:26:48.740Z,14.30
2019-05-21T01:29:17.153Z,14.30
2019-05-21T01:31:45.577Z,14.30
2019-05-21T01:34:15.203Z,14.30
2019-05-21T01:36:43.621Z,14.30
2019-05-21T01:39:12.057Z,14.30
2019-05-21T01:41:40.784Z,14.30
2019-05-21T01:44:09.250Z,14.40
2019-05-21T01:46:37.687Z,14.30
2019-05-21T01:49:06.109Z,14.30
2019-05-21T01:51:34.546Z,14.30
2019-05-21T01:54:02.976Z,14.30
2019-05-21T01:56:31.396Z,14.30
2019-05-21T01:58:59.920Z,14.20
2019-05-21T02:01:28.370Z,14.20
2019-05-21T02:03:56.796Z,14.20
2019-05-21T02:06:25.377Z,14.20
2019-05-21T02:08:53.821Z,14.20
2019-05-21T02:11:22.248Z,14.10
2019-05-21T02:13:50.679Z,14.10
2019-05-21T02:16:19.106Z,14.10
2019-05-21T02:18:47.519Z,14.10
2019-05-21T02:21:16.268Z,14.00
2019-05-21T02:23:44.699Z,14.00
2019-05-21T02:26:13.115Z,13.90
2019-05-21T02:28:41.518Z,13.90
2019-05-21T02:31:10.024Z,13.90
2019-05-21T02:33:38.437Z,13.90
2019-05-21T02:36:06.852Z,13.90
2019-05-21T02:38:35.298Z,13.90
2019-05-21T02:41:03.757Z,13.90
2019-05-21T02:43:32.450Z,13.90
2019-05-21T02:46:00.860Z,13.90
2019-05-21T02:48:29.281Z,13.90
2019-05-21T02:50:57.707Z,13.90
2019-05-21T02:53:26.791Z,13.80
2019-05-21T02:55:55.204Z,13.80
2019-05-21T02:58:23.619Z,13.70
2019-05-21T03:00:58.022Z,13.70
2019-05-21T03:03:28.073Z,13.70
2019-05-21T03:06:12.468Z,13.70
2019-05-21T03:08:27.877Z,13.70
2019-05-21T03:10:56.285Z,13.60
2019-05-21T03:13:24.696Z,13.60
2019-05-21T03:15:53.113Z,13.60
2019-05-21T03:18:21.596Z,13.60
2019-05-21T03:20:50.033Z,13.60
2019-05-21T03:23:18.460Z,13.60
2019-05-21T03:25:46.938Z,13.60
2019-05-21T03:28:15.393Z,13.60
2019-05-21T03:30:43.806Z,13.60
2019-05-21T03:33:12.219Z,13.50
2019-05-21T03:35:40.654Z,13.50
2019-05-21T03:38:09.085Z,13.50
2019-05-21T03:40:37.823Z,13.50
2019-05-21T03:43:06.245Z,13.50
2019-05-21T03:45:34.671Z,13.50
2019-05-21T03:48:03.097Z,13.50
2019-05-21T03:50:31.501Z,13.50
2019-05-21T03:53:00.018Z,13.50
2019-05-21T03:55:28.484Z,13.50
2019-05-21T03:57:56.931Z,13.50
2019-05-21T04:00:25.348Z,13.50
2019-05-21T04:02:53.785Z,13.50
2019-05-21T04:05:24.307Z,13.50
2019-05-21T04:07:52.905Z,13.50
2019-05-21T04:10:22.156Z,13.50
2019-05-21T04:13:06.033Z,13.50
2019-05-21T04:15:37.092Z,13.50
2019-05-21T04:18:07.264Z,13.50
2019-05-21T04:20:36.631Z,13.50
2019-05-21T04:23:05.117Z,13.50
2019-05-21T04:25:33.537Z,13.50
2019-05-21T04:28:01.959Z,13.40
2019-05-21T04:30:30.446Z,13.40
2019-05-21T04:32:58.904Z,13.40
2019-05-21T04:35:27.302Z,13.40
2019-05-21T04:37:55.743Z,13.50
2019-05-21T04:40:24.251Z,13.50
2019-05-21T04:42:52.648Z,13.50
2019-05-21T04:45:21.064Z,13.50
2019-05-21T04:47:49.560Z,13.50
2019-05-21T04:50:17.974Z,13.50
2019-05-21T04:52:46.379Z,13.50
2019-05-21T04:55:14.883Z,13.50
2019-05-21T04:57:43.691Z,13.50
2019-05-21T05:00:12.274Z,13.50
2019-05-21T05:02:40.728Z,13.50
2019-05-21T05:05:09.484Z,13.50
2019-05-21T05:07:37.906Z,13.50
2019-05-21T05:10:06.951Z,13.50
2019-05-21T05:12:35.586Z,13.50
2019-05-21T05:15:05.645Z,13.50
2019-05-21T05:17:34.060Z,13.50
2019-05-21T05:20:02.506Z,13.60
2019-05-21T05:22:30.913Z,13.60
2019-05-21T05:24:59.569Z,13.60
2019-05-21T05:27:28.986Z,13.60
2019-05-21T05:29:57.626Z,13.60
2019-05-21T05:32:27.019Z,13.70
2019-05-21T05:34:55.613Z,13.70
2019-05-21T05:37:24.023Z,13.60
2019-05-21T05:39:52.438Z,13.60
2019-05-21T05:42:21.163Z,13.60
2019-05-21T05:44:49.585Z,13.60
2019-05-21T05:47:17.999Z,13.70
2019-05-21T05:49:48.201Z,13.70
2019-05-21T05:52:16.671Z,13.70
2019-05-21T05:54:45.077Z,13.70
2019-05-21T05:57:13.494Z,13.80
2019-05-21T05:59:41.907Z,13.70
2019-05-21T06:02:10.344Z,13.80
2019-05-21T06:04:38.782Z,13.70
2019-05-21T06:07:07.430Z,13.70
2019-05-21T06:09:35.834Z,13.70
2019-05-21T06:12:04.263Z,13.70
2019-05-21T06:14:32.682Z,13.70
2019-05-21T06:17:01.162Z,13.70
2019-05-21T06:19:29.567Z,13.80
2019-05-21T06:21:57.979Z,13.80
2019-05-21T06:24:26.862Z,13.80
2019-05-21T06:26:55.290Z,13.80
2019-05-21T06:29:23.705Z,13.90
2019-05-21T06:31:52.107Z,13.90
2019-05-21T06:34:20.536Z,13.90
2019-05-21T06:36:48.965Z,13.90
2019-05-21T06:39:17.711Z,13.80
2019-05-21T06:41:46.120Z,13.80
2019-05-21T06:44:14.903Z,13.80
2019-05-21T06:46:43.573Z,13.90
2019-05-21T06:49:11.994Z,13.80
2019-05-21T06:51:40.488Z,13.80
2019-05-21T06:54:08.901Z,13.90
2019-05-21T06:56:37.311Z,14.00
2019-05-21T06:59:05.791Z,14.00
2019-05-21T07:01:34.778Z,14.00
2019-05-21T07:04:03.199Z,14.00
2019-05-21T07:08:52.893Z,14.00
2019-05-21T07:11:21.386Z,14.00
2019-05-21T07:13:49.803Z,14.00
2019-05-21T07:16:18.217Z,14.00
2019-05-21T07:18:46.635Z,14.00
2019-05-21T07:21:15.055Z,14.00
2019-05-21T07:23:43.481Z,14.00
2019-05-21T07:26:11.961Z,14.00
2019-05-21T07:28:41.335Z,14.00
2019-05-21T07:31:10.397Z,14.10
2019-05-21T07:33:40.416Z,14.10
2019-05-21T07:36:10.850Z,14.10
2019-05-21T07:38:52.540Z,14.20
2019-05-21T07:41:09.390Z,14.20
2019-05-21T07:43:37.818Z,14.30
2019-05-21T07:46:06.228Z,14.30
2019-05-21T07:48:34.653Z,14.30
2019-05-21T07:51:04.815Z,14.20
2019-05-21T07:53:34.029Z,14.20
2019-05-21T07:56:03.266Z,14.20
2019-05-21T07:58:31.818Z,14.30
2019-05-21T08:01:01.576Z,14.30
2019-05-21T08:03:30.256Z,14.30
2019-05-21T08:05:58.757Z,14.30
2019-05-21T08:08:27.186Z,14.30
2019-05-21T08:10:56.517Z,14.30
2019-05-21T08:13:24.948Z,14.20
2019-05-21T08:15:54.695Z,14.20
2019-05-21T08:18:23.174Z,14.20
2019-05-21T08:20:51.595Z,14.30
2019-05-21T08:23:20.014Z,14.40
2019-05-21T08:25:48.511Z,14.30
2019-05-21T08:28:16.922Z,14.30
2019-05-21T08:30:45.332Z,14.30
2019-05-21T08:33:13.748Z,14.30
2019-05-21T08:35:42.154Z,14.30
2019-05-21T08:38:10.581Z,14.30
2019-05-21T08:40:39.590Z,14.40
2019-05-21T08:43:08.009Z,14.40
2019-05-21T08:45:36.402Z,14.40
2019-05-21T08:48:04.919Z,14.40
2019-05-21T08:50:34.218Z,14.40
2019-05-21T08:53:02.702Z,14.30
2019-05-21T08:55:31.104Z,14.30
2019-05-21T08:58:07.005Z,14.30
2019-05-21T09:00:30.607Z,14.40
2019-05-21T09:02:59.288Z,14.40
2019-05-21T09:05:27.978Z,14.30
2019-05-21T09:07:56.392Z,14.40
2019-05-21T09:10:24.826Z,14.50
2019-05-21T09:12:53.254Z,14.40
2019-05-21T09:15:23.517Z,14.40
2019-05-21T09:17:51.931Z,14.50
2019-05-21T09:20:20.696Z,14.50
2019-05-21T09:22:49.112Z,14.50
2019-05-21T09:25:21.570Z,14.60
2019-05-21T09:27:47.651Z,14.60
2019-05-21T09:30:16.916Z,14.60
2019-05-21T09:32:45.320Z,14.60
2019-05-21T09:35:15.542Z,14.60
2019-05-21T09:37:43.951Z,14.60
2019-05-21T09:40:13.207Z,14.60
2019-05-21T09:42:45.089Z,14.50
2019-05-21T09:45:12.465Z,14.60
2019-05-21T09:47:40.954Z,14.70
2019-05-21T09:50:10.308Z,14.70
2019-05-21T09:52:38.896Z,14.80
2019-05-21T09:55:07.750Z,14.80
2019-05-21T09:57:38.091Z,14.80
2019-05-21T10:00:19.676Z,14.80
2019-05-21T10:02:48.097Z,14.80
2019-05-21T10:05:16.844Z,14.80
2019-05-21T10:07:45.280Z,14.80
2019-05-21T10:10:13.974Z,14.80
2019-05-21T10:12:42.458Z,14.90
2019-05-21T10:15:11.006Z,14.90
2019-05-21T10:17:39.433Z,15.00
2019-05-21T10:20:07.993Z,15.10
2019-05-21T10:22:37.926Z,15.10
2019-05-21T10:25:06.697Z,15.10
2019-05-21T10:27:35.193Z,15.10
2019-05-21T10:30:05.871Z,15.10
2019-05-21T10:32:34.288Z,15.00
2019-05-21T10:35:03.897Z,15.00
2019-05-21T10:37:32.844Z,15.00
2019-05-21T10:40:03.149Z,15.10
2019-05-21T10:42:31.686Z,15.20
2019-05-21T10:45:00.166Z,15.20
2019-05-21T10:47:28.585Z,15.20
2019-05-21T10:49:57.003Z,15.20
2019-05-21T10:52:25.416Z,15.10
2019-05-21T10:54:53.832Z,15.20
2019-05-21T10:57:22.292Z,15.20
2019-05-21T10:59:50.727Z,15.20
2019-05-21T11:02:20.779Z,15.30
2019-05-21T11:04:50.835Z,15.40
2019-05-21T11:07:19.600Z,15.40
2019-05-21T11:09:48.036Z,15.40
2019-05-21T11:12:16.584Z,15.40
2019-05-21T11:14:45.033Z,15.40
2019-05-21T11:17:13.491Z,15.40
2019-05-21T11:19:41.899Z,15.40
2019-05-21T11:22:10.334Z,15.40
2019-05-21T11:24:38.743Z,15.50
2019-05-21T11:27:07.241Z,15.50
2019-05-21T11:29:35.730Z,15.60
2019-05-21T11:32:04.217Z,15.60
2019-05-21T11:34:32.627Z,15.60
2019-05-21T11:37:01.066Z,15.60
2019-05-21T11:39:29.470Z,15.70
2019-05-21T11:41:57.961Z,15.70
2019-05-21T11:44:26.367Z,15.80
2019-05-21T11:46:55.091Z,15.70
2019-05-21T11:49:23.491Z,15.70
2019-05-21T11:51:51.908Z,15.70
2019-05-21T11:54:20.317Z,15.70
2019-05-21T11:56:48.727Z,15.60
2019-05-21T11:59:17.177Z,15.60
2019-05-21T12:01:45.570Z,15.50
2019-05-21T12:04:13.996Z,15.50
2019-05-21T12:06:42.463Z,15.40
2019-05-21T12:09:10.872Z,15.40
2019-05-21T12:11:39.327Z,15.30
2019-05-21T12:14:07.797Z,15.30
2019-05-21T12:16:36.295Z,15.30
2019-05-21T12:19:08.032Z,15.40
2019-05-21T12:21:35.107Z,15.50
2019-05-21T12:24:03.523Z,15.50
2019-05-21T12:26:31.946Z,15.50
2019-05-21T12:29:00.382Z,15.50
2019-05-21T12:31:28.800Z,15.40
2019-05-21T12:33:57.212Z,15.30
2019-05-21T12:36:25.991Z,15.30
2019-05-21T12:38:54.544Z,15.30
2019-05-21T12:41:23.238Z,15.20
2019-05-21T12:43:51.666Z,15.20
2019-05-21T12:46:20.095Z,15.20
2019-05-21T12:48:48.496Z,15.10
2019-05-21T12:51:16.901Z,15.10
2019-05-21T12:53:45.325Z,15.20
2019-05-21T12:56:13.727Z,15.30
2019-05-21T12:58:42.144Z,15.30
2019-05-21T13:01:10.577Z,15.40
2019-05-21T13:03:39.308Z,15.40
2019-05-21T13:06:12.002Z,15.40
2019-05-21T13:08:40.396Z,15.50
2019-05-21T13:11:08.884Z,15.50
2019-05-21T13:13:37.291Z,15.50
2019-05-21T13:16:05.716Z,15.40
2019-05-21T13:18:34.126Z,15.30
2019-05-21T13:21:02.796Z,15.30
2019-05-21T13:23:31.213Z,15.40
2019-05-21T13:25:59.635Z,15.40
2019-05-21T13:28:28.045Z,15.40
2019-05-21T13:30:56.458Z,15.50
2019-05-21T13:33:24.875Z,15.60
2019-05-21T13:35:53.277Z,15.60
2019-05-21T13:38:21.693Z,15.60
2019-05-21T13:40:51.377Z,15.70
2019-05-21T13:43:21.418Z,15.70
2019-05-21T13:45:50.156Z,15.80
2019-05-21T13:48:18.577Z,15.80
2019-05-21T13:50:47.003Z,15.80
2019-05-21T13:53:15.402Z,15.80
2019-05-21T13:55:44.594Z,15.80
2019-05-21T13:58:13.072Z,15.70
2019-05-21T14:00:43.116Z,15.60
2019-05-21T14:03:12.369Z,15.50
2019-05-21T14:05:40.780Z,15.40
2019-05-21T14:08:09.270Z,15.40
2019-05-21T14:10:38.105Z,15.30
2019-05-21T14:13:06.535Z,15.30
2019-05-21T14:15:35.037Z,15.20
2019-05-21T14:18:03.460Z,15.20
2019-05-21T14:20:31.889Z,15.20
2019-05-21T14:23:00.291Z,15.20
2019-05-21T14:25:28.711Z,15.20
2019-05-21T14:27:57.207Z,15.30
2019-05-21T14:30:25.615Z,15.30
2019-05-21T14:32:54.040Z,15.30
2019-05-21T14:35:22.461Z,15.30
2019-05-21T14:37:50.875Z,15.40
2019-05-21T14:40:31.250Z,15.40
2019-05-21T14:42:59.970Z,15.40
2019-05-21T14:45:21.305Z,15.30
2019-05-21T14:47:49.717Z,15.30
2019-05-21T14:50:18.629Z,15.30
2019-05-21T14:52:51.811Z,15.30
2019-05-21T14:55:17.497Z,15.40
2019-05-21T14:57:46.013Z,15.30
2019-05-21T15:00:25.529Z,15.30
2019-05-21T15:02:54.003Z,15.30
2019-05-21T15:05:22.757Z,15.30
2019-05-21T15:07:51.146Z,15.30
2019-05-21T15:10:19.561Z,15.30
2019-05-21T15:12:48.289Z,15.40
2019-05-21T15:15:17.126Z,15.30
2019-05-21T15:17:45.614Z,15.30
2019-05-21T15:20:31.527Z,15.30
2019-05-21T15:22:59.942Z,15.20
2019-05-21T15:25:28.359Z,15.20
2019-05-21T15:27:56.779Z,15.20
2019-05-21T15:30:25.490Z,15.20
2019-05-21T15:32:53.967Z,15.30
2019-05-21T15:35:22.389Z,15.30
2019-05-21T15:37:50.808Z,15.30
2019-05-21T15:40:19.452Z,15.40
2019-05-21T15:42:52.440Z,15.40
2019-05-21T15:45:18.448Z,15.40
2019-05-21T15:47:46.878Z,15.40
2019-05-21T15:50:15.547Z,15.40
2019-05-21T15:52:43.972Z,15.40
2019-05-21T15:55:12.659Z,15.40
2019-05-21T15:57:41.137Z,15.30
2019-05-21T16:00:11.544Z,15.20
2019-05-21T16:02:39.964Z,15.20
2019-05-21T16:05:09.518Z,15.10
2019-05-21T16:07:37.953Z,15.10
2019-05-21T16:10:07.100Z,15.10
2019-05-21T16:12:35.527Z,15.20
2019-05-21T16:15:05.992Z,15.20
2019-05-21T16:17:34.754Z,15.20
2019-05-21T16:20:04.647Z,15.20
2019-05-21T16:22:35.181Z,15.10
2019-05-21T16:25:05.433Z,15.10
2019-05-21T16:27:33.922Z,15.00
2019-05-21T16:30:02.348Z,15.00
2019-05-21T16:32:30.756Z,15.00
2019-05-21T16:34:59.231Z,15.00
2019-05-21T16:37:27.699Z,15.00
2019-05-21T16:39:56.120Z,14.90
2019-05-21T16:42:24.528Z,14.90
2019-05-21T16:44:52.963Z,14.90
2019-05-21T16:47:21.427Z,14.80
2019-05-21T16:49:49.919Z,14.80
2019-05-21T16:52:18.340Z,14.70
2019-05-21T16:54:46.976Z,14.70
2019-05-21T16:57:15.382Z,14.60
2019-05-21T16:59:43.799Z,14.70
2019-05-21T17:02:12.229Z,14.60
2019-05-21T17:04:40.631Z,14.60
2019-05-21T17:07:09.064Z,14.50
2019-05-21T17:09:37.480Z,14.50
2019-05-21T17:12:06.323Z,14.50
2019-05-21T17:14:34.742Z,14.40
2019-05-21T17:17:03.166Z,14.40
2019-05-21T17:19:31.576Z,14.40
2019-05-21T17:21:59.989Z,14.40
2019-05-21T17:24:28.520Z,14.40
2019-05-21T17:26:57.008Z,14.50
2019-05-21T17:29:25.422Z,14.50
2019-05-21T17:31:53.840Z,14.50
2019-05-21T17:34:22.282Z,14.50
2019-05-21T17:36:50.694Z,14.40
2019-05-21T17:39:19.120Z,14.40
2019-05-21T17:41:47.515Z,14.40
2019-05-21T17:44:15.926Z,14.40
2019-05-21T17:46:44.350Z,14.40
2019-05-21T17:49:12.806Z,14.40
2019-05-21T17:51:41.221Z,14.40
2019-05-21T17:54:09.676Z,14.40
2019-05-21T17:56:38.343Z,14.30
2019-05-21T17:59:06.752Z,14.30
2019-05-21T18:01:35.253Z,14.30
2019-05-21T18:04:03.963Z,14.20
2019-05-21T18:06:32.562Z,14.20
2019-05-21T18:09:01.042Z,14.20
2019-05-21T18:11:29.670Z,14.20
2019-05-21T18:13:58.087Z,14.20
2019-05-21T18:16:26.681Z,14.10
2019-05-21T18:18:55.095Z,14.10
2019-05-21T18:21:24.875Z,14.10
2019-05-21T18:23:53.287Z,14.00
2019-05-21T18:26:22.184Z,13.90
2019-05-21T18:28:50.673Z,13.90
2019-05-21T18:31:19.366Z,13.90
2019-05-21T18:33:47.959Z,13.90
2019-05-21T18:36:16.379Z,13.90
2019-05-21T18:38:44.859Z,13.90
2019-05-21T18:41:13.363Z,13.80
2019-05-21T18:43:41.895Z,13.90
2019-05-21T18:46:10.326Z,13.80
2019-05-21T18:48:38.736Z,13.80
2019-05-21T18:51:07.161Z,13.80
2019-05-21T18:53:35.882Z,13.70
2019-05-21T18:56:04.580Z,13.70
2019-05-21T18:58:32.994Z,13.70
2019-05-21T19:01:01.427Z,13.70
2019-05-21T19:03:29.843Z,13.70
2019-05-21T19:05:58.274Z,13.70
2019-05-21T19:08:26.784Z,13.70
2019-05-21T19:10:55.212Z,13.70
2019-05-21T19:13:23.626Z,13.70
2019-05-21T19:15:52.078Z,13.70
2019-05-21T19:18:20.557Z,13.70
2019-05-21T19:20:50.137Z,13.70
2019-05-21T19:23:18.732Z,13.70
2019-05-21T19:25:47.149Z,13.70
2019-05-21T19:28:15.550Z,13.60
2019-05-21T19:30:43.960Z,13.60
2019-05-21T19:33:12.441Z,13.60
2019-05-21T19:35:41.097Z,13.60
2019-05-21T19:38:09.814Z,13.60
2019-05-21T19:40:38.231Z,13.60
2019-05-21T19:43:06.651Z,13.60
2019-05-21T19:45:35.335Z,13.60
2019-05-21T19:48:03.744Z,13.60
2019-05-21T19:50:32.152Z,13.60
2019-05-21T19:53:00.816Z,13.60
2019-05-21T19:55:29.720Z,13.60
2019-05-21T19:57:58.216Z,13.60
2019-05-21T20:00:28.285Z,13.60
2019-05-21T20:02:56.755Z,13.60
2019-05-21T20:05:25.450Z,13.60
2019-05-21T20:07:54.130Z,13.60
2019-05-21T20:10:22.723Z,13.60
2019-05-21T20:12:51.206Z,13.60
2019-05-21T20:15:20.083Z,13.60
2019-05-21T20:17:51.070Z,13.60
2019-05-21T20:20:22.794Z,13.60
2019-05-21T20:22:51.304Z,13.60
2019-05-21T20:25:20.729Z,13.60
2019-05-21T20:27:49.197Z,13.60
2019-05-21T20:30:19.325Z,13.60
2019-05-21T20:32:49.139Z,13.60
2019-05-21T20:35:18.420Z,13.60
2019-05-21T20:37:48.748Z,13.50
2019-05-21T20:40:18.403Z,13.50
2019-05-21T20:42:47.497Z,13.50
2019-05-21T20:45:16.844Z,13.50
2019-05-21T20:47:45.549Z,13.50
2019-05-21T20:50:17.237Z,13.50
2019-05-21T20:52:46.678Z,13.60
2019-05-21T20:55:17.131Z,13.60
2019-05-21T20:57:45.725Z,13.60
2019-05-21T21:00:16.700Z,13.50
2019-05-21T21:02:45.405Z,13.50
2019-05-21T21:05:14.517Z,13.50
2019-05-21T21:07:43.080Z,13.40
2019-05-21T21:10:12.510Z,13.40
2019-05-21T21:12:42.010Z,13.50
2019-05-21T21:15:11.428Z,13.40
2019-05-21T21:17:40.024Z,13.40
2019-05-21T21:20:08.889Z,13.40
2019-05-21T21:22:37.382Z,13.40
2019-05-21T21:25:06.710Z,13.40
2019-05-21T21:27:36.805Z,13.40
2019-05-21T21:30:06.846Z,13.40
2019-05-21T21:32:35.563Z,13.40
2019-05-21T21:35:05.674Z,13.40
2019-05-21T21:37:34.471Z,13.40
2019-05-21T21:40:05.198Z,13.40
2019-05-21T21:42:33.625Z,13.30
2019-05-21T21:45:02.102Z,13.40
2019-05-21T21:47:31.068Z,13.30
2019-05-21T21:50:00.929Z,13.40
2019-05-21T21:52:30.589Z,13.40
2019-05-21T21:54:59.814Z,13.40
2019-05-21T21:57:28.238Z,13.40
2019-05-21T21:59:56.635Z,13.40
2019-05-21T22:02:28.432Z,13.30
2019-05-21T22:04:57.445Z,13.30
2019-05-21T22:07:26.467Z,13.30
2019-05-21T22:09:55.474Z,13.30
2019-05-21T22:12:25.024Z,13.30
2019-05-21T22:15:00.836Z,13.30
2019-05-21T22:17:29.299Z,13.30
2019-05-21T22:19:58.470Z,13.30
2019-05-21T22:22:27.330Z,13.30
2019-05-21T22:24:55.828Z,13.30
2019-05-21T22:27:24.423Z,13.20
2019-05-21T22:29:52.863Z,13.20
2019-05-21T22:32:22.011Z,13.20
2019-05-21T22:34:50.427Z,13.20
2019-05-21T22:37:20.490Z,13.10
2019-05-21T22:39:48.975Z,13.20
2019-05-21T22:42:17.755Z,13.10
2019-05-21T22:44:46.944Z,13.10
2019-05-21T22:47:15.604Z,13.10
2019-05-21T22:49:44.023Z,13.00
2019-05-21T22:52:12.804Z,13.00
2019-05-21T22:54:41.639Z,13.00
2019-05-21T22:57:10.060Z,13.00
2019-05-21T22:59:38.493Z,13.00
2019-05-21T23:02:08.716Z,13.00
2019-05-21T23:04:37.303Z,13.00
2019-05-21T23:07:06.377Z,13.00
2019-05-21T23:09:34.873Z,13.00
2019-05-21T23:12:03.314Z,13.00
2019-05-21T23:14:31.733Z,13.00
2019-05-21T23:17:00.142Z,13.00
2019-05-21T23:19:29.410Z,13.00
2019-05-21T23:21:59.898Z,13.00
2019-05-21T23:24:29.641Z,13.10
2019-05-21T23:26:58.238Z,13.10
2019-05-21T23:29:26.704Z,13.10
2019-05-21T23:31:55.110Z,13.10
2019-05-21T23:34:23.698Z,13.10
2019-05-21T23:36:53.337Z,13.10
2019-05-21T23:39:23.092Z,13.00
2019-05-21T23:41:51.573Z,13.00
2019-05-21T23:44:20.503Z,13.10
2019-05-21T23:46:48.916Z,13.00
2019-05-21T23:49:17.683Z,13.00
2019-05-21T23:51:46.148Z,13.00
2019-05-21T23:54:15.038Z,13.00
2019-05-21T23:56:43.458Z,13.00
2019-05-21T23:59:12.194Z,13.00
